Airfield :







YOU CAN JOIN US ON...

 
LOGIN :

Register | Disclaimer

   EN    FR    IT 

 









Legend :    VFR   Marginal VFR   IFR   Intensive IFR   Very Intensive IFR
Visi :
Ceiling :
>= 8 km
>= 3000ft
5 to 8 km
1000 to 3000 ft
1500m to 5 km
500 to 1000 ft
800 to 1500m
200 to 500 ft
< 800m
< 200 ft
Symbols :   Thunderstorms  Fog  Heavy snow  Heavy precipitations  Wind > 20 kt






- Airport Elevation : 172 ft
- IATA code : YYY


CYYY - Mont Joli

CURRENT METAR :
  • 121800Z 26016G22KT 30SM BKN031 M13/M20 A3047 RMK SC5 SLP325

EXPIRED METARs :
  • 121700Z 26014G26KT 15SM BKN035 M13/M21 A3046 RMK SC6 SLP322
  • 121621Z 26017G25KT 15SM BKN038 M14/M21 A3046 RMK SC7 SLP321
  • 121600Z 27015G26KT 15SM -SN FEW005 BKN035 M15/M22 A3046 RMK SF1SC6 SLP322

TAF TAF CYYY
Valid from the 12 at 14:00 until the 13 at 02:00 UTC


121338Z 1214/1302 27020G35KT P6SM BKN025
TEMPO 1214/1224 FEW005 BKN020
BECMG 1216/1218 28015G25KT
FM130000 29012G22KT P6SM FEW030 RMK NXT FCST BY 122000Z



MET'MAP, your aeronautical weather chart ! - Copyright ORBIFLY December 2007 - Disclaimer

ORBIFLY MET'MAP TEAM :

Programming & Development : Alexandra Zaïnal
Concept & original design : Baudouin d'Aumeries
Assistance for programming : Marc-Olivier Méhu
Technical & hardware support : Manuel Goepfert

Contact : metmap@orbifly.com




SOURCES & CREDITS :

   NOAA